MMRX/REX METAR and TAF weather

Enter ICAO airport designator
Station Type Date Time Source
MMRX METAR 2019/08/19 00:46 UTC NOAA

MMRX 190046Z 13012G22KT 10SM SKC 32/21 A2981


Station Type Date Time Source
MMRX Decoded METAR 2019/08/19 00:46 UTC NOAA

Station name not available
Aug 18, 2019 - 08:46 PM EDT / 2019.08.19 0046 UTC
Wind: from the SE (130 degrees) at 14 MPH (12 KT) gusting to 25 MPH (22 KT):0
Visibility: 10 mile(s):0
Sky conditions: clear
Temperature: 89 F (32 C)
Dew Point: 69 F (21 C)
Relative Humidity: 52%
Pressure (altimeter): 29.81 in. Hg (1009 hPa)
ob: MMRX 190046Z 13012G22KT 10SM SKC 32/21 A2981
cycle: 1

Station Type Date Time Source
MMRX TAF 2019/08/18 18:33 UTC NOAA

TAF MMRX 181630Z 1818/1918 14010G20KT P6SM SCT020
FM190200 14010KT P6SM SKC
FM191500 14015KT P6SM BKN015

Example: see airport list